Time;durP1;ratioP1;P1;durP2;ratioP2;P2;SDS_P1;SDS_P2;PMS_P1;PMS_P2;Temp;Humidity;BMP_temperature;BMP_pressure;BME280_temperature;BME280_humidity;BME280_pressure;Samples;Min_cycle;Max_cycle;Signal;HPM_P1;HPM_P2
2022/05/28 00:02:38;;;;;;;;;28.25;27.50;;;;;23.44;63.11;100699.09;146609;599;46010;-81
2022/05/28 00:05:30;;;;;;;;;30.25;24.50;;;;;23.37;62.76;100705.28;146608;577;46013;-80
2022/05/28 00:08:22;;;;;;;;;29.75;27.25;;;;;23.31;63.17;100702.66;146608;565;47010;-79
2022/05/28 00:11:21;;;;;;;;;30.25;27.75;;;;;23.25;62.03;100697.38;146606;598;46016;-80
2022/05/28 00:14:14;;;;;;;;;26.00;25.00;;;;;23.17;63.13;100707.06;146608;702;46010;-80
2022/05/28 00:17:06;;;;;;;;;25.00;24.50;;;;;23.10;62.29;100695.59;146607;585;46014;-81
2022/05/28 00:19:58;;;;;;;;;24.00;22.50;;;;;23.07;62.76;100692.09;146607;576;46037;-81
2022/05/28 00:22:50;;;;;;;;;24.00;22.00;;;;;22.96;62.54;100687.69;146609;586;45916;-80
2022/05/28 00:25:42;;;;;;;;;23.00;22.75;;;;;22.83;61.95;100681.50;146606;573;46027;-78
2022/05/28 00:28:34;;;;;;;;;24.50;23.25;;;;;22.81;61.57;100685.00;146606;590;46012;-79
2022/05/28 00:31:26;;;;;;;;;27.75;25.00;;;;;22.80;61.47;100681.50;146608;607;46010;-79
2022/05/28 00:34:18;;;;;;;;;23.50;21.75;;;;;22.79;61.82;100677.06;146604;575;46017;-78
2022/05/28 00:37:12;;;;;;;;;24.00;22.25;;;;;22.75;61.27;100672.66;146606;621;46020;-78
2022/05/28 00:40:11;;;;;;;;;24.00;21.75;;;;;22.78;61.22;100670.03;146601;577;46016;-79
2022/05/28 00:43:04;;;;;;;;;26.25;23.00;;;;;22.82;61.23;100665.59;146607;616;46010;-84
2022/05/28 00:46:09;;;;;;;;;24.50;22.25;;;;;22.82;60.98;100652.38;146605;588;46014;-77
2022/05/28 00:49:04;;;;;;;;;23.75;23.75;;;;;22.83;61.01;100646.22;146607;596;46010;-74
2022/05/28 00:51:59;;;;;;;;;27.00;24.25;;;;;22.85;61.42;100643.59;146605;569;47012;-74
2022/05/28 00:54:52;;;;;;;;;22.25;21.25;;;;;22.82;61.26;100641.81;146607;652;46020;-74
2022/05/28 00:57:45;;;;;;;;;25.75;23.50;;;;;22.80;61.28;100638.28;146598;627;48917;-76
2022/05/28 01:00:38;;;;;;;;;25.75;24.00;;;;;22.78;61.25;100637.41;146609;582;46010;-76
2022/05/28 01:04:10;;;;;;;;;27.25;24.25;;;;;21.71;60.26;100474.41;146605;619;46013;-81
2022/05/28 01:07:25;;;;;;;;;27.25;25.25;;;;;22.70;60.43;100625.97;146607;600;46020;-82
2022/05/28 01:10:38;;;;;;;;;25.50;23.00;;;;;22.72;60.40;100625.09;146603;638;46016;-82
2022/05/28 01:14:08;;;;;;;;;25.75;24.25;;;;;22.11;60.18;100504.38;146604;579;46020;-82
2022/05/28 01:17:08;;;;;;;;;22.25;20.25;;;;;22.82;60.77;100621.53;146601;573;47014;-80
2022/05/28 01:20:14;;;;;;;;;21.75;21.25;;;;;22.87;60.50;100616.28;146606;583;46021;-80
2022/05/28 01:23:43;;;;;;;;;24.25;22.25;;;;;22.88;60.23;100617.16;146604;634;47012;-81
2022/05/28 01:27:00;;;;;;;;;22.25;21.25;;;;;22.89;59.87;100598.62;146605;564;46019;-81
2022/05/28 01:29:59;;;;;;;;;26.25;24.25;;;;;22.85;60.73;100602.16;146603;615;46016;-81
2022/05/28 01:32:55;;;;;;;;;24.00;21.00;;;;;22.82;61.14;100589.81;146605;564;46020;-76
2022/05/28 01:35:50;;;;;;;;;25.75;21.75;;;;;22.80;61.11;100588.97;146603;609;46014;-76
2022/05/28 01:38:45;;;;;;;;;26.75;24.75;;;;;22.82;61.48;100594.22;146607;606;46020;-77
2022/05/28 01:41:39;;;;;;;;;25.75;24.00;;;;;22.80;61.14;100581.03;146599;688;47916;-75
2022/05/28 01:44:34;;;;;;;;;23.50;23.00;;;;;21.78;61.39;100412.00;146606;673;46010;-75
2022/05/28 01:47:28;;;;;;;;;25.50;22.00;;;;;22.66;61.19;100581.91;146606;604;46014;-74
2022/05/28 01:50:25;;;;;;;;;23.75;21.00;;;;;22.56;61.42;100571.34;146605;581;46014;-75
2022/05/28 01:56:33;;;;;;;;;27.00;24.50;;;;;22.38;61.58;100563.41;146607;581;47012;-76
2022/05/28 01:59:33;;;;;;;;;23.00;21.25;;;;;22.34;61.85;100574.88;146606;570;46016;-76
2022/05/28 02:02:25;;;;;;;;;25.00;22.25;;;;;22.27;62.16;100571.31;146608;640;45020;-77
2022/05/28 02:05:17;;;;;;;;;24.00;23.50;;;;;22.22;62.22;100567.81;146607;578;46012;-74
2022/05/28 02:08:09;;;;;;;;;24.50;23.00;;;;;22.17;62.68;100561.63;146607;611;46020;-75
2022/05/28 02:11:13;;;;;;;;;25.25;23.25;;;;;22.08;62.08;100551.03;146605;610;46017;-75
2022/05/28 02:14:29;;;;;;;;;25.25;23.50;;;;;22.05;61.78;100556.31;146605;573;46020;-78
2022/05/28 02:17:52;;;;;;;;;25.50;23.75;;;;;21.34;61.77;100444.37;146603;607;46017;-78
2022/05/28 02:21:31;;;;;;;;;26.25;24.00;;;;;21.38;61.31;100457.63;146610;614;46020;-74
2022/05/28 02:24:34;;;;;;;;;29.50;27.50;;;;;21.94;62.14;100553.66;146606;655;46016;-80
2022/05/28 02:27:29;;;;;;;;;27.25;25.25;;;;;21.92;62.88;100550.13;146608;569;46010;-84
2022/05/28 02:30:21;;;;;;;;;27.00;23.50;;;;;21.87;62.92;100555.41;146604;654;46014;-84
2022/05/28 02:33:14;;;;;;;;;27.50;25.00;;;;;21.86;62.75;100550.97;146607;589;46021;-83
2022/05/28 02:36:06;;;;;;;;;28.00;25.75;;;;;21.87;62.99;100557.16;146606;586;46014;-75
2022/05/28 02:38:58;;;;;;;;;28.50;24.25;;;;;21.88;63.05;100548.38;146611;563;45020;-71
2022/05/28 02:41:50;;;;;;;;;29.75;27.00;;;;;21.91;63.36;100551.00;146603;618;46016;-71
2022/05/28 02:44:42;;;;;;;;;26.50;25.75;;;;;21.90;62.98;100547.50;146606;647;46020;-72
2022/05/28 02:47:34;;;;;;;;;25.00;24.75;;;;;21.91;62.79;100549.25;146607;699;46034;-72
2022/05/28 02:50:28;;;;;;;;;27.00;25.00;;;;;21.89;63.02;100548.34;146609;615;46010;-72
2022/05/28 02:53:20;;;;;;;;;27.75;26.00;;;;;21.90;62.85;100550.13;146605;600;46014;-83
2022/05/28 02:56:13;;;;;;;;;29.25;27.25;;;;;21.85;63.99;100548.34;146607;635;47010;-75
2022/05/28 02:59:05;;;;;;;;;28.25;26.75;;;;;21.79;63.46;100556.25;146607;666;46016;-77
2022/05/28 03:01:57;;;;;;;;;29.50;26.50;;;;;21.75;63.06;100555.37;146607;618;46011;-76
2022/05/28 03:04:49;;;;;;;;;28.00;25.50;;;;;21.73;63.84;100556.22;146602;656;47012;-84
2022/05/28 03:07:41;;;;;;;;;30.75;28.00;;;;;21.72;63.89;100555.34;146607;564;47010;-75
2022/05/28 03:10:34;;;;;;;;;26.25;23.75;;;;;21.70;64.28;100553.59;146604;580;46017;-72
2022/05/28 03:13:26;;;;;;;;;27.50;24.75;;;;;21.65;63.73;100561.47;146606;596;46014;-72
2022/05/28 03:16:18;;;;;;;;;26.75;24.00;;;;;21.61;64.19;100567.62;146605;643;46016;-71
2022/05/28 03:19:10;;;;;;;;;27.25;26.25;;;;;21.56;64.24;100567.62;146608;586;46010;-71
2022/05/28 03:22:02;;;;;;;;;23.00;22.00;;;;;21.54;64.42;100565.84;146607;583;46016;-71
2022/05/28 03:24:54;;;;;;;;;24.50;23.25;;;;;21.51;63.79;100574.62;146606;584;46021;-71
2022/05/28 03:27:46;;;;;;;;;24.75;23.50;;;;;21.53;64.00;100570.25;146604;566;46916;-71
2022/05/28 03:30:38;;;;;;;;;24.50;24.00;;;;;21.56;63.66;100572.91;146608;569;46021;-71
2022/05/28 03:33:30;;;;;;;;;24.00;22.50;;;;;21.62;63.60;100582.56;146606;580;46012;-71
2022/05/28 03:36:24;;;;;;;;;23.50;21.25;;;;;21.66;63.36;100571.16;146608;706;46020;-73
2022/05/28 03:39:16;;;;;;;;;26.25;24.75;;;;;21.70;64.19;100579.97;146606;586;46916;-71
2022/05/28 03:42:08;;;;;;;;;28.00;24.75;;;;;21.68;64.41;100585.22;146604;595;47010;-73
2022/05/28 03:45:00;;;;;;;;;22.00;21.50;;;;;21.67;64.01;100594.91;146605;666;47012;-82
2022/05/28 03:47:52;;;;;;;;;27.00;25.25;;;;;21.70;64.35;100590.53;146608;579;46010;-76
2022/05/28 03:50:44;;;;;;;;;30.75;26.25;;;;;21.71;65.10;100594.91;146604;576;46012;-76
2022/05/28 03:53:36;;;;;;;;;28.50;25.00;;;;;21.72;64.33;100594.06;146603;584;46020;-79
2022/05/28 03:56:35;;;;;;;;;28.75;25.25;;;;;21.74;64.18;100592.28;146606;575;46012;-81
2022/05/28 03:59:27;;;;;;;;;26.25;25.75;;;;;21.79;63.90;100601.12;146608;570;46010;-80
2022/05/28 04:02:19;;;;;;;;;25.00;23.50;;;;;21.85;64.07;100604.66;146604;589;46017;-79
2022/05/28 04:05:12;;;;;;;;;27.00;24.50;;;;;21.92;63.78;100605.56;146607;590;46020;-79
2022/05/28 04:08:04;;;;;;;;;25.50;24.75;;;;;22.00;63.97;100600.31;146606;606;46013;-81
2022/05/28 04:10:56;;;;;;;;;27.25;26.75;;;;;22.04;63.38;100597.66;146605;565;46010;-78
2022/05/28 04:13:50;;;;;;;;;31.75;27.75;;;;;22.13;63.90;100595.06;146605;570;46012;-78
2022/05/28 04:16:42;;;;;;;;;26.50;25.50;;;;;22.27;63.16;100602.13;146607;592;46020;-78
2022/05/28 04:19:34;;;;;;;;;26.75;24.50;;;;;22.45;63.33;100604.81;146606;569;46035;-77
2022/05/28 04:22:26;;;;;;;;;27.50;26.75;;;;;22.63;63.35;100603.06;146608;573;46010;-77
2022/05/28 04:25:18;;;;;;;;;27.50;26.00;;;;;22.80;63.22;100604.81;146607;581;45917;-78
2022/05/28 04:28:10;;;;;;;;;29.00;28.00;;;;;22.95;62.90;100601.28;146609;580;46010;-77
2022/05/28 04:31:02;;;;;;;;;31.25;28.50;;;;;23.13;63.12;100607.44;146605;699;46016;-77
2022/05/28 04:33:55;;;;;;;;;33.25;29.00;;;;;23.24;62.60;100606.53;146605;628;46020;-78
2022/05/28 04:36:47;;;;;;;;;31.75;27.50;;;;;23.38;62.55;100610.91;146606;600;46916;-72
2022/05/28 04:39:39;;;;;;;;;34.00;30.00;;;;;23.57;62.55;100614.38;146603;603;46021;-73
2022/05/28 04:42:31;;;;;;;;;30.25;28.50;;;;;23.76;62.17;100612.56;146605;616;47012;-73
2022/05/28 04:45:23;;;;;;;;;31.00;29.50;;;;;23.96;61.33;100616.87;146607;638;46010;-73
2022/05/28 04:48:16;;;;;;;;;32.50;27.50;;;;;24.15;61.06;100611.47;146604;707;46016;-73
2022/05/28 04:51:08;;;;;;;;;31.50;29.00;;;;;24.37;60.47;100617.50;146602;579;47010;-73
2022/05/28 04:54:00;;;;;;;;;33.00;29.50;;;;;24.58;59.90;100622.69;146602;572;46017;-73
2022/05/28 04:56:53;;;;;;;;;34.25;30.25;;;;;24.75;59.85;100621.66;146607;571;46020;-73
2022/05/28 04:59:44;;;;;;;;;37.00;30.75;;;;;24.88;59.76;100625.97;146606;651;46016;-73
2022/05/28 05:02:36;;;;;;;;;38.25;31.50;;;;;25.01;59.14;100624.06;146608;618;46010;-73
2022/05/28 05:05:29;;;;;;;;;36.75;33.00;;;;;25.15;63.55;100632.81;146606;596;46016;-74
2022/05/28 05:08:20;;;;;;;;;41.00;34.00;;;;;25.12;62.30;100616.87;146608;649;46010;-71
2022/05/28 05:11:13;;;;;;;;;46.50;34.75;;;;;25.17;62.85;100612.47;146606;657;46033;-71
2022/05/28 05:14:05;;;;;;;;;35.25;30.25;;;;;25.29;62.24;100622.91;146607;566;46020;-75
2022/05/28 05:16:57;;;;;;;;;34.00;30.00;;;;;25.45;60.59;100622.75;146604;584;47013;-74
2022/05/28 05:19:49;;;;;;;;;38.00;32.00;;;;;25.62;60.85;100625.22;146607;640;46010;-80
2022/05/28 05:22:41;;;;;;;;;38.50;31.75;;;;;25.70;60.25;100624.22;146605;569;46016;-78
2022/05/28 05:25:34;;;;;;;;;31.50;30.00;;;;;25.83;60.34;100624.13;146603;565;46020;-79
2022/05/28 05:28:26;;;;;;;;;33.25;29.50;;;;;25.98;59.95;100623.87;146605;579;46916;-82
2022/05/28 05:31:18;;;;;;;;;34.50;28.50;;;;;26.14;59.08;100622.78;146607;574;46021;-81
2022/05/28 05:34:11;;;;;;;;;36.25;31.00;;;;;26.26;58.86;100619.03;146604;591;46016;-78
2022/05/28 05:37:03;;;;;;;;;41.50;33.00;;;;;26.38;58.79;100624.19;146607;564;46010;-85
2022/05/28 05:39:55;;;;;;;;;35.00;31.25;;;;;26.48;58.97;100625.84;146607;711;46016;-79
2022/05/28 05:42:47;;;;;;;;;30.50;29.00;;;;;26.56;58.91;100632.81;146607;603;46020;-78
2022/05/28 05:45:39;;;;;;;;;34.75;30.00;;;;;26.58;58.79;100631.88;146603;621;46017;-71
2022/05/28 05:48:32;;;;;;;;;35.75;32.00;;;;;26.58;58.80;100631.88;146609;726;46010;-86
2022/05/28 05:51:24;;;;;;;;;31.00;28.00;;;;;26.59;58.34;100620.34;146603;666;47015;-84
2022/05/28 05:54:17;;;;;;;;;34.75;29.75;;;;;26.65;58.48;100628.22;146610;591;45021;-78
2022/05/28 05:57:09;;;;;;;;;32.50;29.25;;;;;26.78;58.75;100626.22;146604;589;47012;-79
2022/05/28 06:00:01;;;;;;;;;37.50;31.50;;;;;26.88;58.17;100622.50;146606;586;46020;-75
2022/05/28 06:02:54;;;;;;;;;41.00;34.50;;;;;27.00;58.46;100625.84;146605;580;47012;-73
2022/05/28 06:05:45;;;;;;;;;38.50;31.75;;;;;27.11;58.08;100614.13;146605;671;46020;-77
2022/05/28 06:08:38;;;;;;;;;29.50;27.00;;;;;27.24;57.66;100619.25;146607;564;46012;-78
2022/05/28 06:11:29;;;;;;;;;36.50;31.25;;;;;27.39;56.74;100619.81;146607;563;46020;-80
2022/05/28 06:14:22;;;;;;;;;37.25;33.00;;;;;27.50;57.57;100627.59;146603;611;46016;-81
2022/05/28 06:17:13;;;;;;;;;37.00;31.00;;;;;27.53;57.40;100622.19;146604;586;46010;-75
2022/05/28 06:20:15;;;;;;;;;30.75;29.00;;;;;27.59;56.97;100630.06;146605;638;46016;-74
2022/05/28 06:23:08;;;;;;;;;33.50;29.50;;;;;27.67;57.00;100621.94;146609;582;46011;-75
2022/05/28 06:26:01;;;;;;;;;37.00;31.00;;;;;27.77;56.72;100625.28;146602;574;46034;-77
2022/05/28 06:28:53;;;;;;;;;32.75;28.25;;;;;27.86;56.70;100630.44;146606;573;46021;-78
2022/05/28 06:31:45;;;;;;;;;37.50;31.25;;;;;27.95;56.20;100622.25;146604;563;46012;-78
2022/05/28 06:34:37;;;;;;;;;32.25;30.00;;;;;28.04;55.39;100619.38;146605;564;46010;-66
2022/05/28 06:37:30;;;;;;;;;28.00;28.00;;;;;28.14;54.78;100609.38;146605;581;46013;-74
2022/05/28 06:40:21;;;;;;;;;33.25;31.25;;;;;28.26;54.39;100609.09;146605;582;47010;-73
2022/05/28 06:43:14;;;;;;;;;32.25;28.25;;;;;28.35;53.98;100608.00;146604;594;46016;-72
2022/05/28 06:46:10;;;;;;;;;30.00;27.75;;;;;28.31;55.63;100600.97;146606;579;46020;-74
2022/05/28 06:49:03;;;;;;;;;37.00;32.00;;;;;28.37;56.37;100586.63;146602;645;46016;-74
2022/05/28 06:51:56;;;;;;;;;38.50;32.50;;;;;28.45;56.14;100592.69;146608;599;46021;-74
2022/05/28 06:54:48;;;;;;;;;35.00;32.00;;;;;28.53;55.62;100582.69;146602;616;46033;-73
2022/05/28 06:57:40;;;;;;;;;38.00;32.00;;;;;28.67;55.62;100585.91;146608;663;45020;-72
2022/05/28 07:00:33;;;;;;;;;34.75;30.75;;;;;28.86;55.49;100578.28;146605;575;46917;-72
2022/05/28 07:03:27;;;;;;;;;35.50;31.00;;;;;29.13;54.76;100573.13;146608;625;46010;-72
2022/05/28 07:06:20;;;;;;;;;42.00;34.75;;;;;29.32;49.27;100571.72;146603;579;46017;-73
2022/05/28 07:09:12;;;;;;;;;41.75;34.75;;;;;29.38;47.85;100579.56;146608;574;46020;-72
2022/05/28 07:12:04;;;;;;;;;40.00;34.00;;;;;29.30;47.81;100570.88;146605;570;46012;-73
2022/05/28 07:14:56;;;;;;;;;38.25;33.25;;;;;29.23;48.56;100580.84;146606;610;47010;-72
2022/05/28 07:17:48;;;;;;;;;35.75;32.00;;;;;29.13;50.30;100571.34;146601;587;46016;-72
2022/05/28 07:20:40;;;;;;;;;31.50;29.75;;;;;29.08;54.33;100567.94;146606;611;47011;-73
2022/05/28 07:23:34;;;;;;;;;40.25;32.25;;;;;28.91;54.36;100578.16;146606;620;46016;-72
2022/05/28 07:26:27;;;;;;;;;32.25;28.00;;;;;28.66;54.90;100578.81;146606;643;46020;-72
2022/05/28 07:29:19;;;;;;;;;35.00;30.50;;;;;28.44;55.96;100583.81;146605;571;46014;-72
2022/05/28 07:32:11;;;;;;;;;38.50;33.25;;;;;28.30;55.73;100573.44;146605;627;47010;-71
2022/05/28 07:35:03;;;;;;;;;38.25;32.75;;;;;28.27;55.63;100576.19;146606;604;46013;-73
2022/05/28 07:37:55;;;;;;;;;35.75;31.75;;;;;28.37;55.59;100579.50;146608;638;47010;-72
2022/05/28 07:40:47;;;;;;;;;33.00;31.00;;;;;28.60;53.48;100584.31;146604;624;47012;-73
2022/05/28 07:43:40;;;;;;;;;35.25;31.00;;;;;28.83;51.96;100572.16;146606;622;46021;-73
2022/05/28 07:46:35;;;;;;;;;41.00;32.75;;;;;29.00;50.84;100573.47;146604;616;46037;-72
2022/05/28 07:49:27;;;;;;;;;39.00;32.50;;;;;29.00;50.71;100576.13;146609;572;46010;-72
2022/05/28 07:52:19;;;;;;;;;36.75;32.25;;;;;28.98;50.03;100575.28;146604;620;46917;-72
2022/05/28 07:55:12;;;;;;;;;36.00;33.00;;;;;28.95;50.04;100575.38;146607;614;46020;-72
2022/05/28 07:58:16;;;;;;;;;38.75;32.50;;;;;28.96;50.22;100574.44;146603;616;46017;-73
2022/05/28 08:01:09;;;;;;;;;37.00;31.00;;;;;28.95;46.53;100569.16;146603;612;46020;-72
2022/05/28 08:04:02;;;;;;;;;36.25;31.25;;;;;29.07;49.63;100565.31;146607;583;46012;-73
2022/05/28 08:06:55;;;;;;;;;33.25;30.75;;;;;29.22;50.50;100564.84;146609;601;46020;-73
2022/05/28 08:09:47;;;;;;;;;36.50;31.50;;;;;29.46;50.34;100549.94;146604;616;46016;-72
2022/05/28 08:12:39;;;;;;;;;29.75;28.50;;;;;29.73;49.74;100545.59;146607;577;46010;-73
2022/05/28 08:15:32;;;;;;;;;35.25;30.75;;;;;30.02;47.12;100539.31;146606;645;46012;-73
2022/05/28 08:18:26;;;;;;;;;33.00;31.00;;;;;30.21;47.58;100534.28;146606;585;46020;-73
2022/05/28 08:24:28;;;;;;;;;33.50;30.25;;;;;30.63;47.33;100530.22;146605;605;46020;-72
2022/05/28 08:27:19;;;;;;;;;33.75;30.50;;;;;30.78;47.18;100532.37;146624;601;45917;-73
2022/05/28 08:30:13;;;;;;;;;34.25;29.00;;;;;30.86;47.06;100530.31;146629;581;45010;-71
2022/05/28 08:33:06;;;;;;;;;35.00;31.00;;;;;30.85;46.99;100531.25;146621;566;45917;-73
2022/05/28 08:35:58;;;;;;;;;35.75;32.25;;;;;30.72;46.69;100519.19;146626;575;45020;-73
2022/05/28 08:38:51;;;;;;;;;29.75;28.25;;;;;30.55;45.25;100517.09;146624;591;46016;-72
2022/05/28 08:41:57;;;;;;;;;36.25;31.75;;;;;30.40;47.99;100520.28;146628;605;45021;-73
2022/05/28 08:44:49;;;;;;;;;35.00;30.00;;;;;30.21;47.00;100520.03;146625;570;45016;-72
2022/05/28 08:47:47;;;;;;;;;36.75;31.50;;;;;30.14;48.07;100516.66;146631;603;45010;-73
2022/05/28 08:51:02;;;;;;;;;33.75;28.25;;;;;30.16;48.56;100520.16;146625;681;45017;-73
2022/05/28 08:54:01;;;;;;;;;32.00;29.25;;;;;30.27;48.09;100511.81;146632;596;45010;-72
2022/05/28 08:56:57;;;;;;;;;35.00;30.25;;;;;30.38;48.41;100515.00;146628;565;45016;-72
2022/05/28 08:59:57;;;;;;;;;33.50;30.50;;;;;30.47;49.00;100506.66;146627;577;45020;-71
2022/05/28 09:03:00;;;;;;;;;31.25;29.50;;;;;30.53;48.96;100514.47;146626;618;45016;-72
2022/05/28 09:06:03;;;;;;;;;33.00;28.75;;;;;30.65;48.17;100507.81;146630;607;45020;-72
2022/05/28 09:08:57;;;;;;;;;33.00;30.50;;;;;30.73;46.99;100512.91;146626;630;45016;-73
2022/05/28 09:12:05;;;;;;;;;36.00;31.50;;;;;30.80;47.99;100528.72;146631;565;45010;-72
2022/05/28 09:14:57;;;;;;;;;36.50;32.25;;;;;30.78;47.10;100522.56;146627;611;46012;-72
2022/05/28 09:17:52;;;;;;;;;35.50;31.25;;;;;30.61;47.24;100523.09;146627;569;45020;-72
2022/05/28 09:20:47;;;;;;;;;30.00;28.00;;;;;30.36;47.50;100520.41;146629;572;45917;-72
2022/05/28 09:23:50;;;;;;;;;33.00;30.25;;;;;30.36;47.98;100522.19;146627;614;45010;-73
2022/05/28 09:26:55;;;;;;;;;29.00;28.00;;;;;30.45;47.35;100516.53;146609;599;46017;-72
2022/05/28 09:30:20;;;;;;;;;26.75;26.25;;;;;30.52;46.95;100517.19;146603;614;46020;-72
2022/05/28 09:33:56;;;;;;;;;29.25;27.75;;;;;30.58;47.52;100501.78;146601;571;46017;-73
2022/05/28 09:37:05;;;;;;;;;30.75;28.50;;;;;30.65;45.77;100499.78;146604;595;46010;-73
2022/05/28 09:40:41;;;;;;;;;30.00;27.75;;;;;30.69;45.75;100498.75;146599;599;47916;-73
2022/05/28 09:44:01;;;;;;;;;31.25;28.25;;;;;30.86;46.38;100491.94;146607;610;46020;-73
2022/05/28 09:46:54;;;;;;;;;27.00;25.50;;;;;30.95;43.79;100473.75;146601;580;47014;-73
2022/05/28 09:49:57;;;;;;;;;26.75;26.75;;;;;31.02;45.92;100474.37;146609;610;46010;-72
2022/05/28 09:56:36;;;;;;;;;26.25;25.75;;;;;31.28;44.92;100466.25;146606;574;46014;-74
2022/05/28 09:59:37;;;;;;;;;26.50;25.75;;;;;31.37;44.03;100458.78;146606;629;46916;-73
2022/05/28 10:06:08;;;;;;;;;22.00;21.75;;;;;31.49;43.13;100456.50;146605;571;45916;-73
2022/05/28 10:09:18;;;;;;;;;27.50;24.00;;;;;31.55;42.52;100442.00;146609;570;46020;-73
2022/05/28 10:12:25;;;;;;;;;22.00;19.75;;;;;31.68;44.63;100450.41;146603;602;46017;-74
2022/05/28 10:15:22;;;;;;;;;24.00;22.75;;;;;31.74;43.68;100453.72;146604;571;47014;-73
2022/05/28 10:18:39;;;;;;;;;29.75;25.75;;;;;31.68;42.31;100455.78;146607;591;46016;-74
2022/05/28 10:21:41;;;;;;;;;27.50;24.50;;;;;31.49;44.25;100458.31;146610;590;46010;-76
2022/05/28 10:24:44;;;;;;;;;29.25;28.50;;;;;31.29;45.45;100456.41;146608;578;45017;-79
2022/05/28 10:27:49;;;;;;;;;25.50;23.75;;;;;31.20;45.13;100467.47;146629;686;45010;-77
2022/05/28 10:30:49;;;;;;;;;32.50;29.25;;;;;31.27;45.85;100467.16;146628;576;45917;-75
2022/05/28 10:33:48;;;;;;;;;24.00;22.50;;;;;31.37;44.40;100464.16;146630;604;44046;-75
2022/05/28 10:36:40;;;;;;;;;23.75;22.75;;;;;31.52;41.93;100461.75;146628;577;45016;-77
2022/05/28 10:39:33;;;;;;;;;25.00;22.75;;;;;31.64;42.63;100463.06;146630;684;45020;-79
2022/05/28 10:42:25;;;;;;;;;21.25;19.75;;;;;31.56;43.37;100451.81;146626;593;45014;-79
2022/05/28 10:45:22;;;;;;;;;20.75;19.75;;;;;31.59;42.12;100449.00;146627;570;45020;-78
2022/05/28 10:48:56;;;;;;;;;22.50;20.00;;;;;31.06;41.44;100342.16;146624;663;45017;-78
2022/05/28 10:52:19;;;;;;;;;24.50;22.00;;;;;31.65;43.12;100430.00;146632;598;45010;-78
2022/05/28 10:55:16;;;;;;;;;26.25;25.25;;;;;31.72;41.32;100431.47;146627;615;45915;-76
2022/05/28 10:58:56;;;;;;;;;26.50;25.00;;;;;31.26;43.24;100344.00;146630;638;45020;-78
2022/05/28 11:02:17;;;;;;;;;25.00;24.00;;;;;31.54;42.13;100404.56;146628;615;45012;-78
2022/05/28 11:05:45;;;;;;;;;24.25;21.50;;;;;31.39;43.00;100395.31;146628;582;45010;-78
2022/05/28 11:09:17;;;;;;;;;25.75;24.25;;;;;30.53;42.90;100238.91;146627;587;45030;-79
2022/05/28 11:12:35;;;;;;;;;29.50;27.25;;;;;31.47;44.48;100378.00;146633;703;45014;-79
2022/05/28 11:15:52;;;;;;;;;28.00;24.75;;;;;31.61;45.11;100380.09;146626;565;46916;-79
2022/05/28 11:19:02;;;;;;;;;30.50;27.25;;;;;31.78;44.66;100374.06;146631;632;45020;-80
2022/05/28 11:22:32;;;;;;;;;26.00;26.00;;;;;31.98;44.90;100371.41;146622;596;46010;-80
2022/05/28 11:25:36;;;;;;;;;33.25;27.00;;;;;32.15;44.62;100378.75;146624;582;45014;-79
2022/05/28 11:28:50;;;;;;;;;28.25;26.00;;;;;32.28;44.20;100368.34;146606;650;46016;-79
2022/05/28 11:32:30;;;;;;;;;24.50;23.50;;;;;32.38;44.44;100367.00;146607;565;47010;-79
2022/05/28 11:35:47;;;;;;;;;26.50;23.75;;;;;32.40;45.27;100353.47;146604;631;47012;-77
2022/05/28 11:39:16;;;;;;;;;27.25;24.00;;;;;31.51;44.37;100208.12;146607;587;46021;-77
2022/05/28 11:42:37;;;;;;;;;29.25;25.50;;;;;32.32;44.11;100345.78;146604;564;46021;-74
2022/05/28 11:45:47;;;;;;;;;27.00;26.25;;;;;32.25;45.29;100338.09;146607;588;46010;-76
2022/05/28 11:53:13;;;;;;;;;30.25;27.50;;;;;31.27;45.32;100183.22;146610;583;46014;-80
2022/05/28 11:56:20;;;;;;;;;31.00;27.50;;;;;32.05;44.90;100328.25;146605;605;46016;-78
2022/05/28 11:59:19;;;;;;;;;28.25;26.25;;;;;31.88;45.00;100324.47;146609;621;46010;-79
2022/05/28 12:02:16;;;;;;;;;28.50;28.00;;;;;31.81;45.59;100319.41;146608;640;46016;-79
2022/05/28 12:05:26;;;;;;;;;27.25;26.25;;;;;31.82;46.66;100311.31;146610;636;46010;-78
2022/05/28 12:08:39;;;;;;;;;28.25;28.00;;;;;31.88;46.21;100310.19;146605;602;46016;-79
2022/05/28 12:11:44;;;;;;;;;31.00;28.50;;;;;31.94;46.21;100304.59;146605;574;46010;-78
2022/05/28 12:14:39;;;;;;;;;28.50;28.25;;;;;31.92;44.75;100301.97;146605;588;46016;-77
2022/05/28 12:17:33;;;;;;;;;29.50;28.25;;;;;31.95;46.27;100295.59;146606;581;46021;-79
2022/05/28 12:21:00;;;;;;;;;28.75;27.25;;;;;32.09;45.78;100286.94;146603;571;46016;-79
2022/05/28 12:23:51;;;;;;;;;30.00;26.75;;;;;32.27;44.64;100286.09;146608;567;46021;-79
2022/05/28 12:27:00;;;;;;;;;28.75;27.25;;;;;32.30;44.55;100279.72;146604;602;47012;-79
2022/05/28 12:30:08;;;;;;;;;28.75;28.25;;;;;32.38;45.14;100265.03;146608;685;47010;-78
2022/05/28 12:33:02;;;;;;;;;28.75;26.00;;;;;32.46;45.30;100262.00;146607;628;46035;-77
2022/05/28 12:36:31;;;;;;;;;30.75;28.25;;;;;32.11;46.08;100193.88;146609;605;46010;-79
2022/05/28 12:39:55;;;;;;;;;32.50;28.00;;;;;32.49;45.09;100242.19;146606;588;46016;-77
2022/05/28 12:42:47;;;;;;;;;28.25;26.75;;;;;32.48;43.34;100240.47;146604;582;46020;-79
2022/05/28 12:45:45;;;;;;;;;29.00;26.75;;;;;32.31;42.79;100236.75;146606;609;46017;-80
2022/05/28 12:48:39;;;;;;;;;29.00;28.25;;;;;32.26;44.88;100236.06;146608;575;47010;-79
2022/05/28 12:52:25;;;;;;;;;26.75;23.75;;;;;31.35;44.85;100075.78;146603;641;46015;-79
2022/05/28 12:55:43;;;;;;;;;29.50;27.75;;;;;32.48;45.44;100230.59;146609;707;45921;-80
2022/05/28 12:58:37;;;;;;;;;29.50;27.00;;;;;32.44;46.44;100239.75;146603;560;46016;-80
2022/05/28 13:01:32;;;;;;;;;30.25;28.50;;;;;32.38;46.18;100223.91;146610;672;45021;-79
2022/05/28 13:04:25;;;;;;;;;33.00;28.50;;;;;32.31;47.22;100222.47;146605;569;46012;-79
2022/05/28 13:07:46;;;;;;;;;25.25;23.25;;;;;31.18;46.85;100063.09;146604;645;46020;-79
2022/05/28 13:10:37;;;;;;;;;32.75;30.00;;;;;32.16;47.10;100232.09;146605;616;46016;-80
2022/05/28 13:13:58;;;;;;;;;30.75;28.25;;;;;32.13;47.79;100234.91;146605;672;46020;-79
2022/05/28 13:17:38;;;;;;;;;32.25;28.25;;;;;32.05;47.67;100219.16;146605;571;46017;-78
2022/05/28 13:20:58;;;;;;;;;31.75;29.00;;;;;31.96;47.52;100211.53;146607;579;46010;-79
2022/05/28 13:24:17;;;;;;;;;36.50;30.00;;;;;31.91;47.67;100209.06;146605;564;46017;-80
2022/05/28 13:27:45;;;;;;;;;31.25;27.50;;;;;31.89;47.96;100196.66;146628;588;45928;-81
2022/05/28 13:30:58;;;;;;;;;31.50;29.25;;;;;31.80;48.05;100195.22;146629;579;45012;-79
2022/05/28 13:33:50;;;;;;;;;25.25;24.00;;;;;31.74;48.24;100191.00;146630;602;44049;-78
2022/05/28 13:36:42;;;;;;;;;29.25;27.50;;;;;31.05;47.99;100072.62;146630;585;45015;-78
2022/05/28 13:39:35;;;;;;;;;32.75;29.00;;;;;31.70;48.38;100184.06;146627;621;45921;-79
2022/05/28 13:42:30;;;;;;;;;29.00;26.50;;;;;31.68;49.09;100180.59;146626;574;46016;-79
2022/05/28 13:45:32;;;;;;;;;28.00;26.25;;;;;31.66;48.81;100170.88;146623;618;46921;-79
2022/05/28 13:48:29;;;;;;;;;31.75;29.75;;;;;31.65;47.86;100164.66;146630;588;45012;-81
2022/05/28 13:51:22;;;;;;;;;29.00;27.50;;;;;31.67;47.78;100162.75;146631;583;45011;-79
2022/05/28 13:54:14;;;;;;;;;29.75;28.50;;;;;31.63;48.01;100155.78;146630;575;45019;-79